sensor_id;sensor_type;location;lat;lon;timestamp;P1;durP1;ratioP1;P2;durP2;ratioP2
10440;SDS011;5268;49.346;9.522;2023-07-13T03:09:53;6.15;;;2.40;;
10440;SDS011;5268;49.346;9.522;2023-07-13T03:14:57;3.35;;;2.10;;
10440;SDS011;5268;49.346;9.522;2023-07-13T03:19:59;3.00;;;2.08;;
10440;SDS011;5268;49.346;9.522;2023-07-13T03:25:02;4.80;;;2.03;;
10440;SDS011;5268;49.346;9.522;2023-07-13T03:30:05;3.88;;;2.70;;
10440;SDS011;5268;49.346;9.522;2023-07-13T03:35:08;4.05;;;3.03;;
10440;SDS011;5268;49.346;9.522;2023-07-13T03:40:13;7.57;;;3.13;;
10440;SDS011;5268;49.346;9.522;2023-07-13T03:45:14;5.25;;;3.08;;
10440;SDS011;5268;49.346;9.522;2023-07-13T03:50:16;4.30;;;2.55;;
10440;SDS011;5268;49.346;9.522;2023-07-13T03:55:20;4.72;;;2.40;;
10440;SDS011;5268;49.346;9.522;2023-07-13T04:00:22;4.97;;;2.85;;
10440;SDS011;5268;49.346;9.522;2023-07-13T04:05:24;4.53;;;3.10;;
10440;SDS011;5268;49.346;9.522;2023-07-13T04:10:28;7.38;;;3.33;;
10440;SDS011;5268;49.346;9.522;2023-07-13T04:15:30;6.70;;;3.90;;
10440;SDS011;5268;49.346;9.522;2023-07-13T04:20:32;6.40;;;4.47;;
10440;SDS011;5268;49.346;9.522;2023-07-13T04:25:36;6.05;;;3.97;;
10440;SDS011;5268;49.346;9.522;2023-07-13T04:30:38;6.70;;;3.80;;
10440;SDS011;5268;49.346;9.522;2023-07-13T04:35:39;5.95;;;3.70;;
10440;SDS011;5268;49.346;9.522;2023-07-13T04:40:44;5.97;;;3.40;;
10440;SDS011;5268;49.346;9.522;2023-07-13T04:45:46;6.45;;;3.97;;
10440;SDS011;5268;49.346;9.522;2023-07-13T04:50:53;4.72;;;3.38;;
10440;SDS011;5268;49.346;9.522;2023-07-13T04:55:58;5.72;;;3.40;;
10440;SDS011;5268;49.346;9.522;2023-07-13T05:01:00;6.18;;;4.13;;
10440;SDS011;5268;49.346;9.522;2023-07-13T05:06:03;6.60;;;3.60;;
10440;SDS011;5268;49.346;9.522;2023-07-13T05:11:07;6.13;;;3.55;;
10440;SDS011;5268;49.346;9.522;2023-07-13T05:16:09;5.32;;;3.33;;
10440;SDS011;5268;49.346;9.522;2023-07-13T05:21:11;8.52;;;4.35;;
10440;SDS011;5268;49.346;9.522;2023-07-13T05:26:15;9.93;;;3.85;;
10440;SDS011;5268;49.346;9.522;2023-07-13T05:31:17;9.15;;;4.00;;
10440;SDS011;5268;49.346;9.522;2023-07-13T05:36:20;10.13;;;4.50;;
10440;SDS011;5268;49.346;9.522;2023-07-13T05:41:23;7.10;;;4.22;;
10440;SDS011;5268;49.346;9.522;2023-07-13T05:46:25;7.93;;;3.40;;
10440;SDS011;5268;49.346;9.522;2023-07-13T05:51:27;6.35;;;3.20;;
10440;SDS011;5268;49.346;9.522;2023-07-13T05:56:30;7.40;;;3.70;;
10440;SDS011;5268;49.346;9.522;2023-07-13T06:01:32;6.90;;;3.95;;
10440;SDS011;5268;49.346;9.522;2023-07-13T06:06:34;4.35;;;3.25;;
10440;SDS011;5268;49.346;9.522;2023-07-13T06:11:37;6.75;;;3.45;;
10440;SDS011;5268;49.346;9.522;2023-07-13T06:16:39;6.15;;;3.40;;
10440;SDS011;5268;49.346;9.522;2023-07-13T06:21:42;3.80;;;2.53;;
10440;SDS011;5268;49.346;9.522;2023-07-13T06:26:45;4.00;;;2.70;;
10440;SDS011;5268;49.346;9.522;2023-07-13T06:31:47;4.75;;;2.45;;
10440;SDS011;5268;49.346;9.522;2023-07-13T06:36:49;6.00;;;2.72;;
10440;SDS011;5268;49.346;9.522;2023-07-13T06:41:52;4.07;;;2.60;;
10440;SDS011;5268;49.346;9.522;2023-07-13T06:46:54;5.43;;;2.90;;
10440;SDS011;5268;49.346;9.522;2023-07-13T06:51:56;5.05;;;2.78;;
10440;SDS011;5268;49.346;9.522;2023-07-13T06:56:59;3.85;;;2.95;;
10440;SDS011;5268;49.346;9.522;2023-07-13T07:02:01;4.78;;;3.20;;
10440;SDS011;5268;49.346;9.522;2023-07-13T07:07:04;10.77;;;3.33;;
10440;SDS011;5268;49.346;9.522;2023-07-13T07:12:07;8.15;;;3.88;;
10440;SDS011;5268;49.346;9.522;2023-07-13T07:17:10;9.48;;;4.03;;
10440;SDS011;5268;49.346;9.522;2023-07-13T07:22:12;8.32;;;3.88;;
10440;SDS011;5268;49.346;9.522;2023-07-13T07:27:16;7.57;;;3.20;;
10440;SDS011;5268;49.346;9.522;2023-07-13T07:32:18;5.95;;;2.40;;
10440;SDS011;5268;49.346;9.522;2023-07-13T07:37:20;4.65;;;1.83;;
10440;SDS011;5268;49.346;9.522;2023-07-13T07:42:24;2.60;;;1.80;;
10440;SDS011;5268;49.346;9.522;2023-07-13T07:47:26;2.22;;;1.92;;
10440;SDS011;5268;49.346;9.522;2023-07-13T07:52:28;4.82;;;1.55;;
10440;SDS011;5268;49.346;9.522;2023-07-13T07:57:31;4.88;;;2.00;;
10440;SDS011;5268;49.346;9.522;2023-07-13T08:02:34;4.43;;;1.83;;
10440;SDS011;5268;49.346;9.522;2023-07-13T08:07:36;3.72;;;1.67;;
10440;SDS011;5268;49.346;9.522;2023-07-13T08:12:40;3.72;;;1.60;;
10440;SDS011;5268;49.346;9.522;2023-07-13T08:17:42;3.25;;;1.60;;
10440;SDS011;5268;49.346;9.522;2023-07-13T08:22:44;2.33;;;1.88;;
10440;SDS011;5268;49.346;9.522;2023-07-13T08:27:47;3.22;;;1.80;;
10440;SDS011;5268;49.346;9.522;2023-07-13T08:32:49;4.13;;;1.70;;
10440;SDS011;5268;49.346;9.522;2023-07-13T08:37:51;3.05;;;1.70;;
10440;SDS011;5268;49.346;9.522;2023-07-13T08:42:55;3.40;;;1.70;;
10440;SDS011;5268;49.346;9.522;2023-07-13T08:48:01;4.60;;;1.70;;
10440;SDS011;5268;49.346;9.522;2023-07-13T08:53:05;2.60;;;1.80;;
10440;SDS011;5268;49.346;9.522;2023-07-13T08:58:14;3.55;;;1.70;;
10440;SDS011;5268;49.346;9.522;2023-07-13T09:03:19;4.07;;;1.70;;
10440;SDS011;5268;49.346;9.522;2023-07-13T09:08:31;2.33;;;1.70;;
10440;SDS011;5268;49.346;9.522;2023-07-13T09:13:46;6.70;;;1.88;;
10440;SDS011;5268;49.346;9.522;2023-07-13T09:18:56;4.57;;;1.80;;
10440;SDS011;5268;49.346;9.522;2023-07-13T09:24:14;5.18;;;1.63;;
10440;SDS011;5268;49.346;9.522;2023-07-13T09:29:32;2.65;;;1.50;;
10440;SDS011;5268;49.346;9.522;2023-07-13T09:34:35;2.92;;;1.65;;
10440;SDS011;5268;49.346;9.522;2023-07-13T09:39:38;3.63;;;1.40;;
10440;SDS011;5268;49.346;9.522;2023-07-13T09:44:50;3.72;;;1.50;;
10440;SDS011;5268;49.346;9.522;2023-07-13T09:49:54;4.57;;;1.40;;
10440;SDS011;5268;49.346;9.522;2023-07-13T09:54:58;2.63;;;1.50;;
10440;SDS011;5268;49.346;9.522;2023-07-13T10:00:01;5.63;;;1.48;;
10440;SDS011;5268;49.346;9.522;2023-07-13T10:05:06;4.32;;;1.60;;
10440;SDS011;5268;49.346;9.522;2023-07-13T10:10:13;4.18;;;1.63;;
10440;SDS011;5268;49.346;9.522;2023-07-13T10:15:20;3.55;;;1.40;;
10440;SDS011;5268;49.346;9.522;2023-07-13T10:20:24;2.60;;;1.40;;
10440;SDS011;5268;49.346;9.522;2023-07-13T10:25:30;4.05;;;1.70;;
10440;SDS011;5268;49.346;9.522;2023-07-13T10:30:36;3.70;;;1.50;;
10440;SDS011;5268;49.346;9.522;2023-07-13T10:35:43;4.25;;;1.50;;
10440;SDS011;5268;49.346;9.522;2023-07-13T10:40:48;2.28;;;1.38;;
10440;SDS011;5268;49.346;9.522;2023-07-13T10:45:59;2.05;;;1.40;;
10440;SDS011;5268;49.346;9.522;2023-07-13T10:51:03;4.68;;;1.40;;
10440;SDS011;5268;49.346;9.522;2023-07-13T10:56:16;2.42;;;1.35;;
10440;SDS011;5268;49.346;9.522;2023-07-13T11:01:26;3.50;;;1.48;;
10440;SDS011;5268;49.346;9.522;2023-07-13T11:06:41;2.28;;;1.23;;
10440;SDS011;5268;49.346;9.522;2023-07-13T11:11:45;4.18;;;1.58;;
10440;SDS011;5268;49.346;9.522;2023-07-13T11:16:49;3.13;;;1.48;;
10440;SDS011;5268;49.346;9.522;2023-07-13T11:22:10;3.30;;;1.50;;
10440;SDS011;5268;49.346;9.522;2023-07-13T11:27:22;3.75;;;1.50;;
10440;SDS011;5268;49.346;9.522;2023-07-13T11:32:37;3.00;;;1.70;;
10440;SDS011;5268;49.346;9.522;2023-07-13T11:37:39;5.45;;;1.83;;
10440;SDS011;5268;49.346;9.522;2023-07-13T11:42:41;3.03;;;1.48;;
10440;SDS011;5268;49.346;9.522;2023-07-13T11:47:45;4.75;;;1.70;;
10440;SDS011;5268;49.346;9.522;2023-07-13T11:52:47;2.67;;;1.40;;
10440;SDS011;5268;49.346;9.522;2023-07-13T11:57:51;2.47;;;1.40;;
10440;SDS011;5268;49.346;9.522;2023-07-13T12:03:01;2.95;;;1.48;;
10440;SDS011;5268;49.346;9.522;2023-07-13T12:08:08;2.78;;;1.35;;
10440;SDS011;5268;49.346;9.522;2023-07-13T12:13:11;3.03;;;1.60;;
10440;SDS011;5268;49.346;9.522;2023-07-13T12:18:15;2.30;;;1.58;;
10440;SDS011;5268;49.346;9.522;2023-07-13T12:23:21;3.08;;;1.50;;
10440;SDS011;5268;49.346;9.522;2023-07-13T12:28:30;3.13;;;1.52;;
10440;SDS011;5268;49.346;9.522;2023-07-13T12:33:39;3.72;;;1.55;;
10440;SDS011;5268;49.346;9.522;2023-07-13T12:38:41;3.38;;;1.30;;
10440;SDS011;5268;49.346;9.522;2023-07-13T12:43:47;2.55;;;1.45;;
10440;SDS011;5268;49.346;9.522;2023-07-13T12:48:51;3.58;;;1.60;;
10440;SDS011;5268;49.346;9.522;2023-07-13T12:53:57;3.05;;;1.30;;
10440;SDS011;5268;49.346;9.522;2023-07-13T12:59:06;2.40;;;1.40;;
10440;SDS011;5268;49.346;9.522;2023-07-13T13:04:14;3.42;;;1.40;;
10440;SDS011;5268;49.346;9.522;2023-07-13T13:09:17;3.25;;;1.50;;
10440;SDS011;5268;49.346;9.522;2023-07-13T13:14:20;3.22;;;1.60;;
10440;SDS011;5268;49.346;9.522;2023-07-13T13:19:24;3.85;;;1.40;;
10440;SDS011;5268;49.346;9.522;2023-07-13T13:24:27;4.25;;;1.50;;
10440;SDS011;5268;49.346;9.522;2023-07-13T13:29:31;3.15;;;1.45;;
10440;SDS011;5268;49.346;9.522;2023-07-13T13:34:35;2.85;;;1.40;;
10440;SDS011;5268;49.346;9.522;2023-07-13T13:39:38;3.58;;;1.42;;
10440;SDS011;5268;49.346;9.522;2023-07-13T13:44:40;2.80;;;1.48;;
10440;SDS011;5268;49.346;9.522;2023-07-13T13:49:43;3.55;;;1.40;;
10440;SDS011;5268;49.346;9.522;2023-07-13T13:54:47;3.03;;;1.33;;
10440;SDS011;5268;49.346;9.522;2023-07-13T13:59:49;3.00;;;1.40;;
10440;SDS011;5268;49.346;9.522;2023-07-13T14:04:53;3.53;;;1.40;;
10440;SDS011;5268;49.346;9.522;2023-07-13T14:09:58;2.17;;;1.40;;
10440;SDS011;5268;49.346;9.522;2023-07-13T14:15:01;3.08;;;1.73;;
10440;SDS011;5268;49.346;9.522;2023-07-13T14:20:05;5.10;;;1.55;;
10440;SDS011;5268;49.346;9.522;2023-07-13T14:25:13;3.42;;;1.40;;
10440;SDS011;5268;49.346;9.522;2023-07-13T14:30:18;3.78;;;1.42;;
10440;SDS011;5268;49.346;9.522;2023-07-13T14:35:22;2.22;;;1.30;;
10440;SDS011;5268;49.346;9.522;2023-07-13T14:40:25;2.92;;;1.42;;
10440;SDS011;5268;49.346;9.522;2023-07-13T14:45:30;2.88;;;1.40;;
10440;SDS011;5268;49.346;9.522;2023-07-13T14:50:34;3.45;;;1.38;;
10440;SDS011;5268;49.346;9.522;2023-07-13T14:55:36;2.88;;;1.50;;
10440;SDS011;5268;49.346;9.522;2023-07-13T15:00:38;3.20;;;1.33;;
10440;SDS011;5268;49.346;9.522;2023-07-13T15:05:42;2.90;;;1.45;;
10440;SDS011;5268;49.346;9.522;2023-07-13T15:10:44;2.33;;;1.50;;
10440;SDS011;5268;49.346;9.522;2023-07-13T15:15:47;2.88;;;1.48;;
10440;SDS011;5268;49.346;9.522;2023-07-13T15:20:52;2.45;;;1.30;;
10440;SDS011;5268;49.346;9.522;2023-07-13T15:25:56;3.88;;;1.50;;
10440;SDS011;5268;49.346;9.522;2023-07-13T15:30:58;2.08;;;1.30;;
10440;SDS011;5268;49.346;9.522;2023-07-13T15:36:01;2.45;;;1.40;;
10440;SDS011;5268;49.346;9.522;2023-07-13T15:41:08;1.52;;;1.13;;
10440;SDS011;5268;49.346;9.522;2023-07-13T15:46:22;4.03;;;1.50;;
10440;SDS011;5268;49.346;9.522;2023-07-13T15:51:27;4.20;;;1.38;;
10440;SDS011;5268;49.346;9.522;2023-07-13T15:56:33;2.70;;;1.30;;
10440;SDS011;5268;49.346;9.522;2023-07-13T16:01:37;3.92;;;1.40;;
10440;SDS011;5268;49.346;9.522;2023-07-13T16:06:42;2.13;;;1.35;;
10440;SDS011;5268;49.346;9.522;2023-07-13T16:11:44;5.32;;;1.60;;
10440;SDS011;5268;49.346;9.522;2023-07-13T16:16:46;3.47;;;1.30;;
10440;SDS011;5268;49.346;9.522;2023-07-13T16:21:50;3.20;;;1.80;;
10440;SDS011;5268;49.346;9.522;2023-07-13T16:26:52;4.95;;;1.48;;
10440;SDS011;5268;49.346;9.522;2023-07-13T16:32:01;3.25;;;1.27;;
10440;SDS011;5268;49.346;9.522;2023-07-13T16:37:10;2.85;;;1.40;;
10440;SDS011;5268;49.346;9.522;2023-07-13T16:42:15;3.63;;;1.42;;
10440;SDS011;5268;49.346;9.522;2023-07-13T16:47:17;3.55;;;1.50;;
10440;SDS011;5268;49.346;9.522;2023-07-13T16:52:21;3.78;;;1.40;;
10440;SDS011;5268;49.346;9.522;2023-07-13T16:57:23;3.60;;;1.35;;
10440;SDS011;5268;49.346;9.522;2023-07-13T17:02:32;3.13;;;1.70;;
10440;SDS011;5268;49.346;9.522;2023-07-13T17:07:37;3.78;;;1.70;;
10440;SDS011;5268;49.346;9.522;2023-07-13T17:12:39;3.88;;;1.55;;
10440;SDS011;5268;49.346;9.522;2023-07-13T17:17:41;3.08;;;1.50;;
10440;SDS011;5268;49.346;9.522;2023-07-13T17:22:45;4.63;;;1.25;;
10440;SDS011;5268;49.346;9.522;2023-07-13T17:27:47;2.10;;;1.40;;
10440;SDS011;5268;49.346;9.522;2023-07-13T17:32:50;3.58;;;1.60;;
10440;SDS011;5268;49.346;9.522;2023-07-13T17:37:55;2.95;;;1.55;;
10440;SDS011;5268;49.346;9.522;2023-07-13T17:42:58;3.35;;;1.58;;
10440;SDS011;5268;49.346;9.522;2023-07-13T17:48:00;1.90;;;1.20;;
10440;SDS011;5268;49.346;9.522;2023-07-13T17:53:10;2.22;;;1.30;;
10440;SDS011;5268;49.346;9.522;2023-07-13T17:58:16;2.78;;;1.45;;
10440;SDS011;5268;49.346;9.522;2023-07-13T18:03:21;4.75;;;1.63;;
10440;SDS011;5268;49.346;9.522;2023-07-13T18:08:28;2.28;;;1.38;;
10440;SDS011;5268;49.346;9.522;2023-07-13T18:13:31;2.15;;;1.40;;
10440;SDS011;5268;49.346;9.522;2023-07-13T18:18:39;4.25;;;1.50;;
10440;SDS011;5268;49.346;9.522;2023-07-13T18:23:43;2.78;;;1.60;;
10440;SDS011;5268;49.346;9.522;2023-07-13T18:28:46;3.55;;;1.40;;
10440;SDS011;5268;49.346;9.522;2023-07-13T18:33:49;3.47;;;1.33;;
10440;SDS011;5268;49.346;9.522;2023-07-13T18:38:55;2.15;;;1.48;;
10440;SDS011;5268;49.346;9.522;2023-07-13T18:43:58;2.20;;;1.50;;
10440;SDS011;5268;49.346;9.522;2023-07-13T18:49:00;3.35;;;1.60;;
10440;SDS011;5268;49.346;9.522;2023-07-13T18:54:08;3.97;;;1.50;;
10440;SDS011;5268;49.346;9.522;2023-07-13T18:59:13;3.25;;;1.45;;
10440;SDS011;5268;49.346;9.522;2023-07-13T19:04:26;3.90;;;1.70;;
10440;SDS011;5268;49.346;9.522;2023-07-13T19:09:31;2.40;;;1.50;;
10440;SDS011;5268;49.346;9.522;2023-07-13T19:14:33;4.68;;;1.77;;
10440;SDS011;5268;49.346;9.522;2023-07-13T19:19:35;3.75;;;1.92;;
10440;SDS011;5268;49.346;9.522;2023-07-13T19:24:39;4.05;;;2.00;;
10440;SDS011;5268;49.346;9.522;2023-07-13T19:29:41;3.25;;;1.92;;
10440;SDS011;5268;49.346;9.522;2023-07-13T19:34:43;2.67;;;1.75;;
10440;SDS011;5268;49.346;9.522;2023-07-13T19:39:46;3.13;;;2.00;;
10440;SDS011;5268;49.346;9.522;2023-07-13T19:44:54;4.38;;;1.92;;
10440;SDS011;5268;49.346;9.522;2023-07-13T19:49:57;4.10;;;2.05;;
10440;SDS011;5268;49.346;9.522;2023-07-13T19:55:01;3.97;;;2.10;;
10440;SDS011;5268;49.346;9.522;2023-07-13T20:00:13;4.25;;;2.08;;
10440;SDS011;5268;49.346;9.522;2023-07-13T20:05:18;4.32;;;1.88;;
10440;SDS011;5268;49.346;9.522;2023-07-13T20:10:23;3.50;;;2.50;;
10440;SDS011;5268;49.346;9.522;2023-07-13T20:15:30;5.28;;;3.30;;
10440;SDS011;5268;49.346;9.522;2023-07-13T20:20:34;5.82;;;2.90;;
10440;SDS011;5268;49.346;9.522;2023-07-13T20:25:40;4.05;;;2.58;;
10440;SDS011;5268;49.346;9.522;2023-07-13T20:30:44;4.82;;;2.55;;
10440;SDS011;5268;49.346;9.522;2023-07-13T20:35:48;4.90;;;2.20;;
10440;SDS011;5268;49.346;9.522;2023-07-13T20:40:52;3.42;;;2.25;;
10440;SDS011;5268;49.346;9.522;2023-07-13T20:45:56;5.07;;;2.33;;
10440;SDS011;5268;49.346;9.522;2023-07-13T20:50:59;4.55;;;2.30;;
10440;SDS011;5268;49.346;9.522;2023-07-13T20:56:08;3.95;;;2.17;;
10440;SDS011;5268;49.346;9.522;2023-07-13T21:01:13;3.67;;;2.10;;
10440;SDS011;5268;49.346;9.522;2023-07-13T21:06:18;3.50;;;2.05;;
10440;SDS011;5268;49.346;9.522;2023-07-13T21:11:22;5.45;;;2.38;;
10440;SDS011;5268;49.346;9.522;2023-07-13T21:16:25;4.63;;;2.75;;
10440;SDS011;5268;49.346;9.522;2023-07-13T21:21:29;3.13;;;1.98;;
10440;SDS011;5268;49.346;9.522;2023-07-13T21:26:33;5.20;;;2.80;;
10440;SDS011;5268;49.346;9.522;2023-07-13T21:31:35;6.68;;;2.58;;
10440;SDS011;5268;49.346;9.522;2023-07-13T21:36:38;3.67;;;2.28;;
10440;SDS011;5268;49.346;9.522;2023-07-13T21:41:41;5.95;;;2.40;;
10440;SDS011;5268;49.346;9.522;2023-07-13T21:46:44;4.63;;;2.22;;
10440;SDS011;5268;49.346;9.522;2023-07-13T21:51:46;4.43;;;2.40;;
